sensor_id;sensor_type;location;lat;lon;timestamp;pressure;altitude;pressure_sealevel;temperature;humidity
9899;BME280;4988;49.238;6.698;2023-02-28T00:00:30;100015.66;;;0.08;58.99
9899;BME280;4988;49.238;6.698;2023-02-28T00:02:55;100019.97;;;0.03;59.06
9899;BME280;4988;49.238;6.698;2023-02-28T00:05:22;100020.75;;;-0.02;59.44
9899;BME280;4988;49.238;6.698;2023-02-28T00:07:50;100022.47;;;-0.05;59.43
9899;BME280;4988;49.238;6.698;2023-02-28T00:10:20;100023.31;;;-0.08;59.68
9899;BME280;4988;49.238;6.698;2023-02-28T00:12:48;100015.38;;;-0.15;59.94
9899;BME280;4988;49.238;6.698;2023-02-28T00:15:14;100022.25;;;-0.22;59.99
9899;BME280;4988;49.238;6.698;2023-02-28T00:17:40;100020.53;;;-0.23;60.68
9899;BME280;4988;49.238;6.698;2023-02-28T00:20:06;100020.47;;;-0.26;60.34
9899;BME280;4988;49.238;6.698;2023-02-28T00:22:38;100020.53;;;-0.23;60.86
9899;BME280;4988;49.238;6.698;2023-02-28T00:25:04;100024.00;;;-0.23;60.72
9899;BME280;4988;49.238;6.698;2023-02-28T00:27:30;100022.38;;;-0.16;60.43
9899;BME280;4988;49.238;6.698;2023-02-28T00:29:55;100019.72;;;-0.18;60.58
9899;BME280;4988;49.238;6.698;2023-02-28T00:32:21;100024.03;;;-0.21;60.57
9899;BME280;4988;49.238;6.698;2023-02-28T00:34:46;100023.16;;;-0.20;60.79
9899;BME280;4988;49.238;6.698;2023-02-28T00:37:12;100019.56;;;-0.28;60.94
9899;BME280;4988;49.238;6.698;2023-02-28T00:39:38;100024.84;;;-0.27;61.09
9899;BME280;4988;49.238;6.698;2023-02-28T00:42:04;100022.22;;;-0.27;61.23
9899;BME280;4988;49.238;6.698;2023-02-28T00:44:30;100032.66;;;-0.30;61.12
9899;BME280;4988;49.238;6.698;2023-02-28T00:46:57;100026.56;;;-0.29;61.18
9899;BME280;4988;49.238;6.698;2023-02-28T00:49:23;100023.94;;;-0.30;61.49
9899;BME280;4988;49.238;6.698;2023-02-28T00:51:49;100018.66;;;-0.34;61.56
9899;BME280;4988;49.238;6.698;2023-02-28T00:54:15;100022.09;;;-0.38;61.80
9899;BME280;4988;49.238;6.698;2023-02-28T00:56:40;100022.94;;;-0.42;61.58
9899;BME280;4988;49.238;6.698;2023-02-28T00:59:06;100027.19;;;-0.47;61.98
9899;BME280;4988;49.238;6.698;2023-02-28T01:01:31;100022.84;;;-0.48;62.33
9899;BME280;4988;49.238;6.698;2023-02-28T01:03:57;100024.63;;;-0.44;62.62
9899;BME280;4988;49.238;6.698;2023-02-28T01:06:22;100022.84;;;-0.46;62.67
9899;BME280;4988;49.238;6.698;2023-02-28T01:08:48;100021.97;;;-0.47;62.50
9899;BME280;4988;49.238;6.698;2023-02-28T01:11:16;100023.56;;;-0.58;62.38
9899;BME280;4988;49.238;6.698;2023-02-28T01:13:43;100025.38;;;-0.54;62.91
9899;BME280;4988;49.238;6.698;2023-02-28T01:16:09;100027.16;;;-0.50;63.01
9899;BME280;4988;49.238;6.698;2023-02-28T01:18:34;100021.94;;;-0.49;62.93
9899;BME280;4988;49.238;6.698;2023-02-28T01:21:05;100026.19;;;-0.58;63.07
9899;BME280;4988;49.238;6.698;2023-02-28T01:23:31;100021.81;;;-0.59;63.55
9899;BME280;4988;49.238;6.698;2023-02-28T01:25:57;100020.91;;;-0.61;63.70
9899;BME280;4988;49.238;6.698;2023-02-28T01:28:22;100027.94;;;-0.57;63.92
9899;BME280;4988;49.238;6.698;2023-02-28T01:30:49;100029.66;;;-0.59;64.00
9899;BME280;4988;49.238;6.698;2023-02-28T01:33:15;100024.41;;;-0.59;64.03
9899;BME280;4988;49.238;6.698;2023-02-28T01:35:40;100034.03;;;-0.58;64.05
9899;BME280;4988;49.238;6.698;2023-02-28T01:38:05;100028.69;;;-0.68;63.99
9899;BME280;4988;49.238;6.698;2023-02-28T01:40:30;100027.78;;;-0.68;64.42
9899;BME280;4988;49.238;6.698;2023-02-28T01:42:56;100028.69;;;-0.66;64.41
9899;BME280;4988;49.238;6.698;2023-02-28T01:45:29;100025.16;;;-0.70;64.67
9899;BME280;4988;49.238;6.698;2023-02-28T01:48:02;100028.59;;;-0.74;64.88
9899;BME280;4988;49.238;6.698;2023-02-28T01:50:32;100023.47;;;-0.68;64.80
9899;BME280;4988;49.238;6.698;2023-02-28T01:53:01;100032.06;;;-0.73;65.18
9899;BME280;4988;49.238;6.698;2023-02-28T01:55:28;100032.06;;;-0.75;65.47
9899;BME280;4988;49.238;6.698;2023-02-28T01:57:57;100024.16;;;-0.78;65.56
9899;BME280;4988;49.238;6.698;2023-02-28T02:00:25;100025.09;;;-0.73;65.68
9899;BME280;4988;49.238;6.698;2023-02-28T02:02:55;100019.91;;;-0.71;65.58
9899;BME280;4988;49.238;6.698;2023-02-28T02:05:26;100023.41;;;-0.71;65.71
9899;BME280;4988;49.238;6.698;2023-02-28T02:07:55;100019.91;;;-0.71;65.78
9899;BME280;4988;49.238;6.698;2023-02-28T02:10:34;100016.38;;;-0.75;65.73
9899;BME280;4988;49.238;6.698;2023-02-28T02:13:29;100018.19;;;-0.69;65.85
9899;BME280;4988;49.238;6.698;2023-02-28T02:18:55;100017.22;;;-0.77;65.89
9899;BME280;4988;49.238;6.698;2023-02-28T02:30:12;100011.00;;;-0.86;67.00
9899;BME280;4988;49.238;6.698;2023-02-28T02:35:35;100008.38;;;-0.87;67.12
9899;BME280;4988;49.238;6.698;2023-02-28T02:38:31;100004.81;;;-0.91;67.14
9899;BME280;4988;49.238;6.698;2023-02-28T02:41:21;99998.69;;;-0.91;67.54
9899;BME280;4988;49.238;6.698;2023-02-28T02:43:53;100011.72;;;-0.96;68.15
9899;BME280;4988;49.238;6.698;2023-02-28T02:46:32;100009.03;;;-1.02;67.84
9899;BME280;4988;49.238;6.698;2023-02-28T02:49:03;100012.50;;;-1.03;68.47
9899;BME280;4988;49.238;6.698;2023-02-28T02:51:32;100003.56;;;-1.16;68.81
9899;BME280;4988;49.238;6.698;2023-02-28T02:54:05;99999.34;;;-1.09;68.54
9899;BME280;4988;49.238;6.698;2023-02-28T02:56:34;100004.47;;;-1.16;68.76
9899;BME280;4988;49.238;6.698;2023-02-28T02:59:03;100010.47;;;-1.21;69.51
9899;BME280;4988;49.238;6.698;2023-02-28T03:01:31;100003.47;;;-1.22;69.19
9899;BME280;4988;49.238;6.698;2023-02-28T03:03:58;100003.44;;;-1.25;69.72
9899;BME280;4988;49.238;6.698;2023-02-28T03:06:25;100006.06;;;-1.24;69.79
9899;BME280;4988;49.238;6.698;2023-02-28T03:08:51;99999.06;;;-1.28;69.87
9899;BME280;4988;49.238;6.698;2023-02-28T03:11:17;100003.38;;;-1.28;70.08
9899;BME280;4988;49.238;6.698;2023-02-28T03:24:50;99996.25;;;-1.40;70.93
9899;BME280;4988;49.238;6.698;2023-02-28T03:27:27;99993.56;;;-1.45;71.54
9899;BME280;4988;49.238;6.698;2023-02-28T03:32:32;99997.84;;;-1.49;71.81
9899;BME280;4988;49.238;6.698;2023-02-28T03:35:05;99995.16;;;-1.53;71.60
9899;BME280;4988;49.238;6.698;2023-02-28T03:37:35;99995.13;;;-1.55;71.78
9899;BME280;4988;49.238;6.698;2023-02-28T03:40:08;99996.00;;;-1.54;72.23
9899;BME280;4988;49.238;6.698;2023-02-28T03:42:38;99992.53;;;-1.53;72.13
9899;BME280;4988;49.238;6.698;2023-02-28T03:45:17;100001.13;;;-1.60;72.68
9899;BME280;4988;49.238;6.698;2023-02-28T03:47:50;99995.16;;;-1.52;72.77
9899;BME280;4988;49.238;6.698;2023-02-28T03:50:27;99989.06;;;-1.52;72.22
9899;BME280;4988;49.238;6.698;2023-02-28T03:53:04;99995.25;;;-1.47;72.71
9899;BME280;4988;49.238;6.698;2023-02-28T03:55:42;99990.84;;;-1.50;72.57
9899;BME280;4988;49.238;6.698;2023-02-28T03:58:20;99994.28;;;-1.54;72.70
9899;BME280;4988;49.238;6.698;2023-02-28T04:00:55;99990.84;;;-1.51;72.72
9899;BME280;4988;49.238;6.698;2023-02-28T04:03:22;99996.16;;;-1.45;73.09
9899;BME280;4988;49.238;6.698;2023-02-28T04:05:53;100001.41;;;-1.42;72.82
9899;BME280;4988;49.238;6.698;2023-02-28T04:08:20;99999.56;;;-1.49;73.09
9899;BME280;4988;49.238;6.698;2023-02-28T04:10:51;99993.44;;;-1.51;73.55
9899;BME280;4988;49.238;6.698;2023-02-28T04:13:18;100005.56;;;-1.55;73.29
9899;BME280;4988;49.238;6.698;2023-02-28T04:15:43;99989.09;;;-1.49;73.45
9899;BME280;4988;49.238;6.698;2023-02-28T04:18:08;99997.78;;;-1.52;73.18
9899;BME280;4988;49.238;6.698;2023-02-28T04:20:34;99985.44;;;-1.60;73.88
9899;BME280;4988;49.238;6.698;2023-02-28T04:22:59;99994.22;;;-1.57;73.74
9899;BME280;4988;49.238;6.698;2023-02-28T04:25:24;99988.97;;;-1.58;74.36
9899;BME280;4988;49.238;6.698;2023-02-28T04:27:50;99989.84;;;-1.58;74.08
9899;BME280;4988;49.238;6.698;2023-02-28T04:30:15;99991.69;;;-1.52;73.91
9899;BME280;4988;49.238;6.698;2023-02-28T04:32:41;99989.91;;;-1.55;74.32
9899;BME280;4988;49.238;6.698;2023-02-28T04:35:06;100002.00;;;-1.60;74.57
9899;BME280;4988;49.238;6.698;2023-02-28T04:37:32;99997.63;;;-1.63;74.92
9899;BME280;4988;49.238;6.698;2023-02-28T04:40:00;99996.84;;;-1.55;74.89
9899;BME280;4988;49.238;6.698;2023-02-28T04:42:25;99987.31;;;-1.53;74.58
9899;BME280;4988;49.238;6.698;2023-02-28T04:44:51;99991.69;;;-1.52;74.95
9899;BME280;4988;49.238;6.698;2023-02-28T04:47:16;99987.28;;;-1.56;75.34
9899;BME280;4988;49.238;6.698;2023-02-28T04:49:42;99989.06;;;-1.54;75.16
9899;BME280;4988;49.238;6.698;2023-02-28T04:52:07;99986.34;;;-1.60;75.19
9899;BME280;4988;49.238;6.698;2023-02-28T04:54:35;99987.13;;;-1.64;75.23
9899;BME280;4988;49.238;6.698;2023-02-28T04:57:00;99986.25;;;-1.65;75.65
9899;BME280;4988;49.238;6.698;2023-02-28T04:59:26;99991.56;;;-1.60;75.87
9899;BME280;4988;49.238;6.698;2023-02-28T05:01:52;99991.59;;;-1.57;75.89
9899;BME280;4988;49.238;6.698;2023-02-28T05:04:17;99992.44;;;-1.58;75.35
9899;BME280;4988;49.238;6.698;2023-02-28T05:06:43;99988.06;;;-1.59;75.66
9899;BME280;4988;49.238;6.698;2023-02-28T05:09:09;99991.59;;;-1.57;76.08
9899;BME280;4988;49.238;6.698;2023-02-28T05:11:36;99987.19;;;-1.61;75.87
9899;BME280;4988;49.238;6.698;2023-02-28T05:14:10;99998.50;;;-1.60;75.93
9899;BME280;4988;49.238;6.698;2023-02-28T05:16:36;99998.50;;;-1.60;76.22
9899;BME280;4988;49.238;6.698;2023-02-28T05:19:02;99997.56;;;-1.64;76.02
9899;BME280;4988;49.238;6.698;2023-02-28T05:24:02;99999.34;;;-1.63;76.51
9899;BME280;4988;49.238;6.698;2023-02-28T05:26:29;100002.78;;;-1.64;76.61
9899;BME280;4988;49.238;6.698;2023-02-28T05:28:55;100001.97;;;-1.62;76.46
9899;BME280;4988;49.238;6.698;2023-02-28T05:31:21;100008.06;;;-1.61;76.34
9899;BME280;4988;49.238;6.698;2023-02-28T05:33:46;100006.41;;;-1.57;76.03
9899;BME280;4988;49.238;6.698;2023-02-28T05:36:12;100014.16;;;-1.60;76.32
9899;BME280;4988;49.238;6.698;2023-02-28T05:38:37;100008.00;;;-1.66;76.83
9899;BME280;4988;49.238;6.698;2023-02-28T05:41:07;100015.00;;;-1.62;76.85
9899;BME280;4988;49.238;6.698;2023-02-28T05:43:33;100012.41;;;-1.62;76.82
9899;BME280;4988;49.238;6.698;2023-02-28T05:45:58;100011.56;;;-1.60;76.83
9899;BME280;4988;49.238;6.698;2023-02-28T05:48:24;100009.78;;;-1.62;76.79
9899;BME280;4988;49.238;6.698;2023-02-28T05:50:51;100010.69;;;-1.61;77.19
9899;BME280;4988;49.238;6.698;2023-02-28T05:53:16;100013.22;;;-1.66;77.12
9899;BME280;4988;49.238;6.698;2023-02-28T05:55:41;100021.06;;;-1.64;77.70
9899;BME280;4988;49.238;6.698;2023-02-28T05:58:06;100021.84;;;-1.70;77.90
9899;BME280;4988;49.238;6.698;2023-02-28T06:00:32;100023.66;;;-1.66;77.87
9899;BME280;4988;49.238;6.698;2023-02-28T06:02:57;100022.81;;;-1.65;78.07
9899;BME280;4988;49.238;6.698;2023-02-28T06:05:26;100015.94;;;-1.59;77.80
9899;BME280;4988;49.238;6.698;2023-02-28T06:07:52;100030.66;;;-1.62;77.35
9899;BME280;4988;49.238;6.698;2023-02-28T06:10:18;100020.22;;;-1.62;77.80
9899;BME280;4988;49.238;6.698;2023-02-28T06:12:44;100015.88;;;-1.63;78.32
9899;BME280;4988;49.238;6.698;2023-02-28T06:15:13;100028.97;;;-1.59;77.85
9899;BME280;4988;49.238;6.698;2023-02-28T06:17:40;100021.03;;;-1.67;78.33
9899;BME280;4988;49.238;6.698;2023-02-28T06:20:07;100022.72;;;-1.68;78.64
9899;BME280;4988;49.238;6.698;2023-02-28T06:22:33;100028.88;;;-1.64;78.40
9899;BME280;4988;49.238;6.698;2023-02-28T06:24:58;100026.28;;;-1.64;78.82
9899;BME280;4988;49.238;6.698;2023-02-28T06:27:23;100030.53;;;-1.69;79.13
9899;BME280;4988;49.238;6.698;2023-02-28T06:29:53;100040.94;;;-1.72;78.86
9899;BME280;4988;49.238;6.698;2023-02-28T06:32:19;100044.50;;;-1.69;78.91
9899;BME280;4988;49.238;6.698;2023-02-28T06:34:45;100047.94;;;-1.70;78.56
9899;BME280;4988;49.238;6.698;2023-02-28T06:37:10;100045.34;;;-1.68;79.03
9899;BME280;4988;49.238;6.698;2023-02-28T06:39:35;100048.06;;;-1.64;79.31
9899;BME280;4988;49.238;6.698;2023-02-28T06:42:01;100046.34;;;-1.62;79.05
9899;BME280;4988;49.238;6.698;2023-02-28T06:44:26;100042.00;;;-1.61;78.76
9899;BME280;4988;49.238;6.698;2023-02-28T06:46:52;100054.16;;;-1.63;79.11
9899;BME280;4988;49.238;6.698;2023-02-28T06:49:17;100045.50;;;-1.60;78.58
9899;BME280;4988;49.238;6.698;2023-02-28T06:51:44;100058.63;;;-1.57;78.96
9899;BME280;4988;49.238;6.698;2023-02-28T06:54:12;100061.22;;;-1.57;78.72
9899;BME280;4988;49.238;6.698;2023-02-28T06:56:38;100057.72;;;-1.58;78.79
9899;BME280;4988;49.238;6.698;2023-02-28T06:59:03;100058.75;;;-1.48;78.91
9899;BME280;4988;49.238;6.698;2023-02-28T07:01:30;100063.13;;;-1.47;78.89
9899;BME280;4988;49.238;6.698;2023-02-28T07:03:57;100065.00;;;-1.41;78.73
9899;BME280;4988;49.238;6.698;2023-02-28T07:06:22;100058.94;;;-1.39;78.82
9899;BME280;4988;49.238;6.698;2023-02-28T07:08:49;100062.50;;;-1.34;78.88
9899;BME280;4988;49.238;6.698;2023-02-28T07:11:14;100068.66;;;-1.28;78.76
9899;BME280;4988;49.238;6.698;2023-02-28T07:13:40;100067.91;;;-1.24;78.79
9899;BME280;4988;49.238;6.698;2023-02-28T07:16:07;100068.00;;;-1.18;78.30
9899;BME280;4988;49.238;6.698;2023-02-28T07:18:34;100068.13;;;-1.09;78.62
9899;BME280;4988;49.238;6.698;2023-02-28T07:21:02;100065.50;;;-1.09;77.93
9899;BME280;4988;49.238;6.698;2023-02-28T07:23:28;100063.91;;;-1.01;77.96
9899;BME280;4988;49.238;6.698;2023-02-28T07:25:53;100062.22;;;-0.97;77.70
9899;BME280;4988;49.238;6.698;2023-02-28T07:28:19;100063.09;;;-0.95;77.75
9899;BME280;4988;49.238;6.698;2023-02-28T07:30:44;100066.53;;;-1.01;77.91
9899;BME280;4988;49.238;6.698;2023-02-28T07:33:10;100067.41;;;-0.99;77.54
9899;BME280;4988;49.238;6.698;2023-02-28T07:35:35;100067.50;;;-0.94;77.62
9899;BME280;4988;49.238;6.698;2023-02-28T07:38:00;100073.53;;;-0.97;77.78
9899;BME280;4988;49.238;6.698;2023-02-28T07:40:26;100070.16;;;-0.92;77.36
9899;BME280;4988;49.238;6.698;2023-02-28T07:42:52;100069.22;;;-0.94;77.49
9899;BME280;4988;49.238;6.698;2023-02-28T07:45:17;100071.09;;;-0.86;77.21
9899;BME280;4988;49.238;6.698;2023-02-28T07:47:43;100066.84;;;-0.79;77.00
9899;BME280;4988;49.238;6.698;2023-02-28T07:50:11;100061.69;;;-0.73;76.73
9899;BME280;4988;49.238;6.698;2023-02-28T07:52:37;100072.22;;;-0.68;76.76
9899;BME280;4988;49.238;6.698;2023-02-28T07:55:04;100073.22;;;-0.61;76.38
9899;BME280;4988;49.238;6.698;2023-02-28T07:57:29;100071.53;;;-0.58;75.68
9899;BME280;4988;49.238;6.698;2023-02-28T07:59:55;100062.88;;;-0.51;75.64
9899;BME280;4988;49.238;6.698;2023-02-28T08:02:20;100066.50;;;-0.42;75.06
9899;BME280;4988;49.238;6.698;2023-02-28T08:04:45;100068.28;;;-0.38;74.55
9899;BME280;4988;49.238;6.698;2023-02-28T08:07:15;100059.66;;;-0.31;74.32
9899;BME280;4988;49.238;6.698;2023-02-28T08:09:41;100066.72;;;-0.27;74.41
9899;BME280;4988;49.238;6.698;2023-02-28T08:12:07;100065.03;;;-0.19;74.23
9899;BME280;4988;49.238;6.698;2023-02-28T08:14:33;100075.56;;;-0.15;73.53
9899;BME280;4988;49.238;6.698;2023-02-28T08:16:59;100068.66;;;-0.09;73.12
9899;BME280;4988;49.238;6.698;2023-02-28T08:19:24;100073.94;;;-0.04;72.60
9899;BME280;4988;49.238;6.698;2023-02-28T08:21:50;100068.00;;;0.08;71.91
9899;BME280;4988;49.238;6.698;2023-02-28T08:24:15;100064.47;;;0.07;72.01
9899;BME280;4988;49.238;6.698;2023-02-28T08:26:40;100068.91;;;0.11;71.65
9899;BME280;4988;49.238;6.698;2023-02-28T08:29:06;100075.13;;;0.21;71.79
9899;BME280;4988;49.238;6.698;2023-02-28T08:31:31;100063.81;;;0.27;70.59
9899;BME280;4988;49.238;6.698;2023-02-28T08:33:56;100071.66;;;0.22;70.28
9899;BME280;4988;49.238;6.698;2023-02-28T08:36:24;100062.97;;;0.29;70.51
9899;BME280;4988;49.238;6.698;2023-02-28T08:38:50;100060.41;;;0.32;70.16
9899;BME280;4988;49.238;6.698;2023-02-28T08:41:16;100060.47;;;0.42;69.37
9899;BME280;4988;49.238;6.698;2023-02-28T08:43:41;100062.31;;;0.47;69.55
9899;BME280;4988;49.238;6.698;2023-02-28T08:46:07;100054.50;;;0.55;68.82
9899;BME280;4988;49.238;6.698;2023-02-28T08:48:35;100048.44;;;0.59;68.60
9899;BME280;4988;49.238;6.698;2023-02-28T08:51:08;100048.50;;;0.66;68.48
9899;BME280;4988;49.238;6.698;2023-02-28T08:53:38;100046.84;;;0.75;68.43
9899;BME280;4988;49.238;6.698;2023-02-28T08:56:10;100042.50;;;0.79;67.98
9899;BME280;4988;49.238;6.698;2023-02-28T08:58:36;100046.00;;;0.81;68.02
9899;BME280;4988;49.238;6.698;2023-02-28T09:01:10;100045.03;;;0.71;67.24
9899;BME280;4988;49.238;6.698;2023-02-28T09:03:37;100062.53;;;0.71;67.42
9899;BME280;4988;49.238;6.698;2023-02-28T09:06:02;100063.31;;;0.60;67.39
9899;BME280;4988;49.238;6.698;2023-02-28T09:08:29;100046.69;;;0.61;67.65
9899;BME280;4988;49.238;6.698;2023-02-28T09:10:55;100050.22;;;0.65;67.45
9899;BME280;4988;49.238;6.698;2023-02-28T09:13:26;100056.38;;;0.66;67.68
9899;BME280;4988;49.238;6.698;2023-02-28T09:15:52;100057.22;;;0.66;67.73
9899;BME280;4988;49.238;6.698;2023-02-28T09:18:18;100051.25;;;0.81;66.54
9899;BME280;4988;49.238;6.698;2023-02-28T09:20:43;100050.34;;;0.77;66.36
9899;BME280;4988;49.238;6.698;2023-02-28T09:23:11;100062.59;;;0.80;66.46
9899;BME280;4988;49.238;6.698;2023-02-28T09:25:37;100060.00;;;0.86;66.07
9899;BME280;4988;49.238;6.698;2023-02-28T09:28:04;100054.91;;;1.02;66.17
9899;BME280;4988;49.238;6.698;2023-02-28T09:30:30;100056.69;;;1.06;65.84
9899;BME280;4988;49.238;6.698;2023-02-28T09:32:55;100062.81;;;1.09;65.56
9899;BME280;4988;49.238;6.698;2023-02-28T09:35:22;100051.47;;;1.12;64.68
9899;BME280;4988;49.238;6.698;2023-02-28T09:37:49;100054.16;;;1.20;64.12
9899;BME280;4988;49.238;6.698;2023-02-28T09:40:15;100046.31;;;1.24;63.68
9899;BME280;4988;49.238;6.698;2023-02-28T09:42:45;100049.84;;;1.26;63.62
9899;BME280;4988;49.238;6.698;2023-02-28T09:47:59;100049.03;;;1.40;64.34
9899;BME280;4988;49.238;6.698;2023-02-28T09:50:35;100049.94;;;1.42;63.48
9899;BME280;4988;49.238;6.698;2023-02-28T09:53:10;100042.94;;;1.44;63.44
9899;BME280;4988;49.238;6.698;2023-02-28T09:55:45;100051.75;;;1.49;62.95
9899;BME280;4988;49.238;6.698;2023-02-28T09:58:28;100051.75;;;1.52;63.47
9899;BME280;4988;49.238;6.698;2023-02-28T10:01:03;100048.28;;;1.63;62.67
9899;BME280;4988;49.238;6.698;2023-02-28T10:03:39;100045.69;;;1.64;62.41
9899;BME280;4988;49.238;6.698;2023-02-28T10:06:11;100045.66;;;1.61;62.03
9899;BME280;4988;49.238;6.698;2023-02-28T10:11:27;100043.13;;;1.76;62.84
9899;BME280;4988;49.238;6.698;2023-02-28T10:22:03;100037.97;;;2.06;61.60
9899;BME280;4988;49.238;6.698;2023-02-28T10:24:35;100031.00;;;2.17;61.93
9899;BME280;4988;49.238;6.698;2023-02-28T10:27:22;100024.00;;;2.29;60.30
9899;BME280;4988;49.238;6.698;2023-02-28T10:29:53;100024.03;;;2.35;59.97
9899;BME280;4988;49.238;6.698;2023-02-28T10:32:21;100020.53;;;2.40;59.32
9899;BME280;4988;49.238;6.698;2023-02-28T10:34:55;100029.31;;;2.46;59.08
9899;BME280;4988;49.238;6.698;2023-02-28T10:37:22;100032.81;;;2.43;58.87
9899;BME280;4988;49.238;6.698;2023-02-28T10:39:47;100027.53;;;2.37;58.83
9899;BME280;4988;49.238;6.698;2023-02-28T10:42:22;100026.63;;;2.30;58.89
9899;BME280;4988;49.238;6.698;2023-02-28T10:45:05;100026.66;;;2.33;59.24
9899;BME280;4988;49.238;6.698;2023-02-28T10:47:31;100024.91;;;2.43;58.76
9899;BME280;4988;49.238;6.698;2023-02-28T10:49:58;100022.31;;;2.49;58.67
9899;BME280;4988;49.238;6.698;2023-02-28T10:52:37;100027.53;;;2.52;57.57
9899;BME280;4988;49.238;6.698;2023-02-28T10:55:24;100015.28;;;2.56;57.68
9899;BME280;4988;49.238;6.698;2023-02-28T10:57:53;100019.66;;;2.58;57.22
9899;BME280;4988;49.238;6.698;2023-02-28T11:00:24;100022.31;;;2.55;57.76
9899;BME280;4988;49.238;6.698;2023-02-28T11:02:52;100025.81;;;2.54;57.29
9899;BME280;4988;49.238;6.698;2023-02-28T11:05:35;100027.53;;;2.58;56.80
9899;BME280;4988;49.238;6.698;2023-02-28T11:08:12;100021.41;;;2.61;56.66
9899;BME280;4988;49.238;6.698;2023-02-28T11:10:39;100023.19;;;2.73;56.05
9899;BME280;4988;49.238;6.698;2023-02-28T11:13:05;100014.41;;;2.82;55.54
9899;BME280;4988;49.238;6.698;2023-02-28T11:15:32;100012.66;;;2.92;55.56
9899;BME280;4988;49.238;6.698;2023-02-28T11:18:21;100004.78;;;2.84;55.12
9899;BME280;4988;49.238;6.698;2023-02-28T11:20:53;100016.16;;;2.84;55.45
9899;BME280;4988;49.238;6.698;2023-02-28T11:23:19;100007.41;;;2.87;54.88
9899;BME280;4988;49.238;6.698;2023-02-28T11:25:54;100000.41;;;2.94;54.71
9899;BME280;4988;49.238;6.698;2023-02-28T11:28:32;100007.38;;;2.99;54.50
9899;BME280;4988;49.238;6.698;2023-02-28T11:33:51;100002.97;;;3.18;54.24
9899;BME280;4988;49.238;6.698;2023-02-28T11:38:50;100010.84;;;3.40;54.00
9899;BME280;4988;49.238;6.698;2023-02-28T11:44:19;100009.94;;;3.41;54.18
9899;BME280;4988;49.238;6.698;2023-02-28T11:49:43;100009.97;;;3.38;54.17
9899;BME280;4988;49.238;6.698;2023-02-28T11:55:01;100006.44;;;3.42;53.65
9899;BME280;4988;49.238;6.698;2023-02-28T12:00:19;100006.47;;;3.25;53.87
9899;BME280;4988;49.238;6.698;2023-02-28T12:05:57;99997.72;;;3.23;53.31
9899;BME280;4988;49.238;6.698;2023-02-28T12:08:45;100005.59;;;3.25;53.12
9899;BME280;4988;49.238;6.698;2023-02-28T12:11:30;99993.31;;;3.25;52.73
9899;BME280;4988;49.238;6.698;2023-02-28T12:20:33;100000.25;;;3.51;52.74
9899;BME280;4988;49.238;6.698;2023-02-28T12:23:40;99999.38;;;3.57;52.37
9899;BME280;4988;49.238;6.698;2023-02-28T12:26:35;99990.59;;;3.62;52.27
9899;BME280;4988;49.238;6.698;2023-02-28T12:29:24;99987.03;;;3.66;52.24
9899;BME280;4988;49.238;6.698;2023-02-28T12:34:39;99987.94;;;3.62;52.83
9899;BME280;4988;49.238;6.698;2023-02-28T12:37:10;99987.09;;;3.59;52.89
9899;BME280;4988;49.238;6.698;2023-02-28T12:39:45;99982.75;;;3.50;52.28
9899;BME280;4988;49.238;6.698;2023-02-28T12:42:45;100002.94;;;3.40;52.43
9899;BME280;4988;49.238;6.698;2023-02-28T12:45:18;99999.38;;;3.47;53.60
9899;BME280;4988;49.238;6.698;2023-02-28T12:47:48;99998.50;;;3.54;52.66
9899;BME280;4988;49.238;6.698;2023-02-28T12:50:15;99986.19;;;3.53;52.55
9899;BME280;4988;49.238;6.698;2023-02-28T12:52:54;99980.97;;;3.55;52.97
9899;BME280;4988;49.238;6.698;2023-02-28T13:09:11;99967.78;;;3.55;52.60
9899;BME280;4988;49.238;6.698;2023-02-28T13:11:41;99973.94;;;3.59;52.77
9899;BME280;4988;49.238;6.698;2023-02-28T13:17:10;99971.28;;;3.56;52.01
9899;BME280;4988;49.238;6.698;2023-02-28T13:25:01;99976.56;;;3.56;52.24
9899;BME280;4988;49.238;6.698;2023-02-28T13:27:40;99981.81;;;3.59;51.69
9899;BME280;4988;49.238;6.698;2023-02-28T13:33:36;99971.25;;;3.63;52.26
9899;BME280;4988;49.238;6.698;2023-02-28T13:38:43;99973.00;;;3.72;51.75
9899;BME280;4988;49.238;6.698;2023-02-28T13:44:23;99973.84;;;3.73;51.72
9899;BME280;4988;49.238;6.698;2023-02-28T13:57:59;99966.81;;;3.78;51.17
9899;BME280;4988;49.238;6.698;2023-02-28T14:01:21;99965.03;;;3.81;51.25
9899;BME280;4988;49.238;6.698;2023-02-28T14:11:42;99957.03;;;4.03;51.25
9899;BME280;4988;49.238;6.698;2023-02-28T14:14:52;99957.81;;;4.11;51.25
9899;BME280;4988;49.238;6.698;2023-02-28T14:16:55;99949.03;;;4.12;50.96
9899;BME280;4988;49.238;6.698;2023-02-28T14:19:25;99955.19;;;4.14;50.94
9899;BME280;4988;49.238;6.698;2023-02-28T14:22:18;99951.53;;;4.34;50.22
9899;BME280;4988;49.238;6.698;2023-02-28T14:27:58;99947.72;;;4.69;49.85
9899;BME280;4988;49.238;6.698;2023-02-28T14:30:43;99946.81;;;4.73;49.04
9899;BME280;4988;49.238;6.698;2023-02-28T14:36:35;99952.97;;;4.72;48.84
9899;BME280;4988;49.238;6.698;2023-02-28T14:39:05;99938.06;;;4.68;48.61
9899;BME280;4988;49.238;6.698;2023-02-28T14:41:35;99946.84;;;4.69;48.93
9899;BME280;4988;49.238;6.698;2023-02-28T14:44:03;99952.16;;;4.65;48.90
9899;BME280;4988;49.238;6.698;2023-02-28T14:46:40;99945.03;;;4.74;49.19
9899;BME280;4988;49.238;6.698;2023-02-28T14:49:34;99943.31;;;4.74;48.32
9899;BME280;4988;49.238;6.698;2023-02-28T14:52:09;99945.03;;;4.74;48.78
9899;BME280;4988;49.238;6.698;2023-02-28T14:54:38;99949.59;;;4.58;48.30
9899;BME280;4988;49.238;6.698;2023-02-28T14:57:05;99946.13;;;4.53;49.23
9899;BME280;4988;49.238;6.698;2023-02-28T14:59:33;99950.56;;;4.47;49.27
9899;BME280;4988;49.238;6.698;2023-02-28T15:02:22;99946.09;;;4.54;49.09
9899;BME280;4988;49.238;6.698;2023-02-28T15:07:34;99941.59;;;4.65;48.92
9899;BME280;4988;49.238;6.698;2023-02-28T15:12:32;99944.25;;;4.64;49.27
9899;BME280;4988;49.238;6.698;2023-02-28T15:14:57;99945.09;;;4.67;48.82
9899;BME280;4988;49.238;6.698;2023-02-28T15:17:24;99944.19;;;4.73;48.65
9899;BME280;4988;49.238;6.698;2023-02-28T15:19:52;99958.19;;;4.78;48.68
9899;BME280;4988;49.238;6.698;2023-02-28T15:22:26;99943.25;;;4.80;48.62
9899;BME280;4988;49.238;6.698;2023-02-28T15:24:54;99948.56;;;4.74;48.72
9899;BME280;4988;49.238;6.698;2023-02-28T15:27:27;99939.88;;;4.64;49.37
9899;BME280;4988;49.238;6.698;2023-02-28T15:30:05;99951.34;;;4.59;49.46
9899;BME280;4988;49.238;6.698;2023-02-28T15:32:32;99950.47;;;4.60;49.20
9899;BME280;4988;49.238;6.698;2023-02-28T15:34:59;99940.72;;;4.66;49.07
9899;BME280;4988;49.238;6.698;2023-02-28T15:37:26;99946.81;;;4.73;49.27
9899;BME280;4988;49.238;6.698;2023-02-28T15:39:52;99946.75;;;4.78;48.99
9899;BME280;4988;49.238;6.698;2023-02-28T15:42:20;99947.66;;;4.77;48.74
9899;BME280;4988;49.238;6.698;2023-02-28T15:44:46;99941.47;;;4.78;48.52
9899;BME280;4988;49.238;6.698;2023-02-28T15:47:20;99947.69;;;4.74;48.70